Bushy Park, Australia
Current Conditions -  °F | °C
As of 2:30 PM on Saturday 25 Oct 2014 (Local Time) from YMHB Reporting Station
Broken Clouds Broken Clouds  
Wind Chill: 59°   Ceiling: 25000
Heat Index: 59°   Visibility: 6mi
Dew Point: 48°   Wind: 22mph
Humidity: 67%   Direction: 170°S
Pressure: 30"   Gusts: NA
Location:  42.7°S, 146.88°E
Report Text: YMHB 250330Z 17019KT 9999 FEW030 BKN250 15/09 Q1016
Loading
Personal Weather Stations






























Interactive Weather Map New forecast layout! Learn more

10-Day Weather Forecast

Advertisements
Track Severe Weather on mobile